createdAt,value
2022-08-25T00:02:03.114Z,22.07
2022-08-25T00:04:33.745Z,22.16
2022-08-25T00:07:04.323Z,22.10
2022-08-25T00:09:35.206Z,22.14
2022-08-25T00:12:04.983Z,22.12
2022-08-25T00:14:37.180Z,22.14
2022-08-25T00:17:06.217Z,22.14
2022-08-25T00:19:37.146Z,22.12
2022-08-25T00:22:06.927Z,22.06
2022-08-25T00:24:34.349Z,22.07
2022-08-25T00:27:01.829Z,22.05
2022-08-25T00:29:33.483Z,22.01
2022-08-25T00:32:01.127Z,22.05
2022-08-25T00:34:35.802Z,21.98
2022-08-25T00:37:07.340Z,22.04
2022-08-25T00:39:34.880Z,22.03
2022-08-25T00:42:03.533Z,22.03
2022-08-25T00:44:34.087Z,21.93
2022-08-25T00:47:03.379Z,21.96
2022-08-25T00:49:43.374Z,21.98
2022-08-25T00:52:20.481Z,21.85
2022-08-25T00:55:08.154Z,21.94
2022-08-25T00:57:45.779Z,21.90
2022-08-25T01:00:25.625Z,21.89
2022-08-25T01:02:53.469Z,21.88
2022-08-25T01:05:21.380Z,21.83
2022-08-25T01:07:50.330Z,21.82
2022-08-25T01:10:22.237Z,21.73
2022-08-25T01:12:50.593Z,21.85
2022-08-25T01:15:18.353Z,21.80
2022-08-25T01:17:50.086Z,21.85
2022-08-25T01:20:29.274Z,21.85
2022-08-25T01:22:57.849Z,21.81
2022-08-25T01:25:49.476Z,21.76
2022-08-25T01:28:17.885Z,21.81
2022-08-25T01:30:45.005Z,21.82
2022-08-25T01:33:13.124Z,21.82
2022-08-25T01:35:41.206Z,21.83
2022-08-25T01:38:09.089Z,21.83
2022-08-25T01:40:39.851Z,21.83
2022-08-25T01:43:14.877Z,21.83
2022-08-25T01:45:46.953Z,21.82
2022-08-25T01:48:16.347Z,21.74
2022-08-25T01:50:44.207Z,21.82
2022-08-25T01:53:28.037Z,21.73
2022-08-25T01:56:01.887Z,21.78
2022-08-25T01:58:34.757Z,21.82
2022-08-25T02:01:06.934Z,21.74
2022-08-25T02:03:38.425Z,21.80
2022-08-25T02:06:12.951Z,21.75
2022-08-25T02:08:41.455Z,21.72
2022-08-25T02:11:13.658Z,21.74
2022-08-25T02:13:42.394Z,21.81
2022-08-25T02:16:18.592Z,21.79
2022-08-25T02:18:46.301Z,21.71
2022-08-25T02:21:14.420Z,21.58
2022-08-25T02:23:42.753Z,21.73
2022-08-25T02:26:10.477Z,21.85
2022-08-25T02:28:37.834Z,21.84
2022-08-25T02:31:06.267Z,21.86
2022-08-25T02:33:33.474Z,21.96
2022-08-25T02:36:02.740Z,22.00
2022-08-25T02:38:30.409Z,21.96
2022-08-25T02:40:59.141Z,22.01
2022-08-25T02:43:28.442Z,22.03
2022-08-25T02:45:56.469Z,21.91
2022-08-25T02:48:23.679Z,21.97
2022-08-25T02:50:52.931Z,22.08
2022-08-25T02:53:21.386Z,22.08
2022-08-25T02:55:48.478Z,22.05
2022-08-25T03:00:43.081Z,22.08
2022-08-25T03:03:10.239Z,22.07
2022-08-25T03:05:37.558Z,22.12
2022-08-25T03:08:06.902Z,22.08
2022-08-25T03:10:35.418Z,22.12
2022-08-25T03:13:02.507Z,22.07
2022-08-25T03:15:30.503Z,22.03
2022-08-25T03:17:59.814Z,22.06
2022-08-25T03:20:27.921Z,22.06
2022-08-25T03:22:55.115Z,22.04
2022-08-25T03:25:40.555Z,21.95
2022-08-25T03:28:08.910Z,21.97
2022-08-25T03:30:36.012Z,21.93
2022-08-25T03:33:03.874Z,21.91
2022-08-25T03:35:31.071Z,21.91
2022-08-25T03:37:59.769Z,21.90
2022-08-25T03:40:27.278Z,21.87
2022-08-25T03:42:56.396Z,21.84
2022-08-25T03:45:25.449Z,21.83
2022-08-25T03:47:53.513Z,21.79
2022-08-25T03:50:23.313Z,21.86
2022-08-25T03:52:57.213Z,21.84
2022-08-25T03:55:26.252Z,21.79
2022-08-25T03:57:55.319Z,21.84
2022-08-25T04:00:23.687Z,21.73
2022-08-25T04:02:50.929Z,21.89
2022-08-25T04:05:18.070Z,21.86
2022-08-25T04:07:46.320Z,21.81
2022-08-25T04:10:13.566Z,21.83
2022-08-25T04:12:40.705Z,21.79
2022-08-25T04:15:08.980Z,21.75
2022-08-25T04:17:40.987Z,21.74
2022-08-25T04:20:10.748Z,21.71
2022-08-25T04:22:41.526Z,21.67
2022-08-25T04:25:13.051Z,21.69
2022-08-25T04:27:41.203Z,21.70
2022-08-25T04:30:09.148Z,21.77
2022-08-25T04:32:37.542Z,21.71
2022-08-25T04:35:05.495Z,21.78
2022-08-25T04:37:33.418Z,21.72
2022-08-25T04:40:00.679Z,21.85
2022-08-25T04:42:27.848Z,21.80
2022-08-25T04:45:02.036Z,21.78
2022-08-25T04:47:29.211Z,21.74
2022-08-25T04:49:56.289Z,21.84
2022-08-25T04:52:23.302Z,21.90
2022-08-25T04:54:50.461Z,21.91
2022-08-25T04:57:17.481Z,21.95
2022-08-25T04:59:44.527Z,21.94
2022-08-25T05:02:11.571Z,21.99
2022-08-25T05:04:38.858Z,22.01
2022-08-25T05:07:06.136Z,22.07
2022-08-25T05:09:33.526Z,22.07
2022-08-25T05:12:02.895Z,22.16
2022-08-25T05:14:31.314Z,22.21
2022-08-25T05:16:59.564Z,22.21
2022-08-25T05:19:27.221Z,22.22
2022-08-25T05:21:54.391Z,22.20
2022-08-25T05:24:22.212Z,22.28
2022-08-25T05:26:49.896Z,22.29
2022-08-25T05:29:17.453Z,22.24
2022-08-25T05:31:50.131Z,22.34
2022-08-25T05:34:19.628Z,22.30
2022-08-25T05:36:48.519Z,22.48
2022-08-25T05:39:15.673Z,22.51
2022-08-25T05:41:42.933Z,21.73
2022-08-25T05:44:10.167Z,22.59
2022-08-25T05:46:37.351Z,22.61
2022-08-25T05:49:04.486Z,22.60
2022-08-25T05:51:31.538Z,22.58
2022-08-25T05:53:58.583Z,22.53
2022-08-25T05:56:25.598Z,22.53
2022-08-25T05:58:52.590Z,22.51
2022-08-25T06:01:47.691Z,22.64
2022-08-25T06:04:18.045Z,22.67
2022-08-25T06:06:45.181Z,22.71
2022-08-25T06:09:12.537Z,22.65
2022-08-25T06:11:41.529Z,22.74
2022-08-25T06:14:10.735Z,22.70
2022-08-25T06:16:39.360Z,22.77
2022-08-25T06:19:09.098Z,22.82
2022-08-25T06:21:39.074Z,22.91
2022-08-25T06:24:09.975Z,22.98
2022-08-25T06:26:39.144Z,23.00
2022-08-25T06:29:06.187Z,23.03
2022-08-25T06:31:33.242Z,22.99
2022-08-25T06:34:00.282Z,23.03
2022-08-25T06:36:27.366Z,23.00
2022-08-25T06:38:54.539Z,23.02
2022-08-25T06:41:21.578Z,23.11
2022-08-25T06:43:52.901Z,23.10
2022-08-25T06:46:35.909Z,23.19
2022-08-25T06:49:06.701Z,23.21
2022-08-25T06:51:36.061Z,23.27
2022-08-25T06:54:06.339Z,23.28
2022-08-25T06:56:34.434Z,23.22
2022-08-25T06:59:03.940Z,23.24
2022-08-25T07:01:32.129Z,23.25
2022-08-25T07:04:04.276Z,23.25
2022-08-25T07:06:35.475Z,23.29
2022-08-25T07:09:06.745Z,23.35
2022-08-25T07:11:34.903Z,23.31
2022-08-25T07:14:07.350Z,23.46
2022-08-25T07:16:35.929Z,23.46
2022-08-25T07:19:05.749Z,23.49
2022-08-25T07:21:39.450Z,23.54
2022-08-25T07:24:11.550Z,23.61
2022-08-25T07:26:42.231Z,23.67
2022-08-25T07:32:18.551Z,23.77
2022-08-25T07:35:05.077Z,23.78
2022-08-25T07:37:48.173Z,23.82
2022-08-25T07:40:26.204Z,23.93
2022-08-25T07:42:59.720Z,23.89
2022-08-25T07:45:31.788Z,24.01
2022-08-25T07:48:06.343Z,23.98
2022-08-25T07:50:35.138Z,24.26
2022-08-25T07:53:02.449Z,24.37
2022-08-25T07:55:30.532Z,24.46
2022-08-25T07:57:59.828Z,24.53
2022-08-25T08:00:30.097Z,24.47
2022-08-25T08:02:58.143Z,24.66
2022-08-25T08:05:27.449Z,24.73
2022-08-25T08:07:56.404Z,24.87
2022-08-25T08:13:17.730Z,24.92
2022-08-25T08:15:47.036Z,25.10
2022-08-25T08:18:14.262Z,25.11
2022-08-25T08:20:48.132Z,25.16
2022-08-25T08:23:17.190Z,25.16
2022-08-25T08:25:44.382Z,25.21
2022-08-25T08:28:11.694Z,25.28
2022-08-25T08:30:38.738Z,25.31
2022-08-25T08:33:10.150Z,25.40
2022-08-25T08:35:41.274Z,25.49
2022-08-25T08:38:14.428Z,25.56
2022-08-25T08:41:23.252Z,25.75
2022-08-25T08:44:06.695Z,25.81
2022-08-25T08:46:56.656Z,25.83
2022-08-25T08:49:57.799Z,25.83
2022-08-25T08:52:46.796Z,25.88
2022-08-25T08:55:43.281Z,25.83
2022-08-25T08:58:26.516Z,25.83
2022-08-25T09:00:58.501Z,25.90
2022-08-25T09:03:43.290Z,25.90
2022-08-25T09:06:22.446Z,25.93
2022-08-25T09:08:49.685Z,25.90
2022-08-25T09:11:46.865Z,25.92
2022-08-25T09:14:54.324Z,25.80
2022-08-25T09:17:54.416Z,25.89
2022-08-25T09:20:51.039Z,25.59
2022-08-25T09:24:06.556Z,25.95
2022-08-25T09:27:12.269Z,26.01
2022-08-25T09:30:06.351Z,26.07
2022-08-25T09:32:48.692Z,25.87
2022-08-25T09:35:30.344Z,26.17
2022-08-25T09:38:15.650Z,26.25
2022-08-25T09:40:49.614Z,26.31
2022-08-25T09:43:42.334Z,26.38
2022-08-25T09:46:12.118Z,26.47
2022-08-25T09:48:42.331Z,26.57
2022-08-25T09:51:38.183Z,26.50
2022-08-25T09:54:13.025Z,26.74
2022-08-25T09:56:52.442Z,26.77
2022-08-25T09:59:35.954Z,26.82
2022-08-25T10:02:25.144Z,26.84
2022-08-25T10:04:53.476Z,26.78
2022-08-25T10:07:27.609Z,26.90
2022-08-25T10:10:01.847Z,26.89
2022-08-25T10:12:45.146Z,27.19
2022-08-25T10:15:30.265Z,27.35
2022-08-25T10:18:28.710Z,27.43
2022-08-25T10:21:17.414Z,27.19
2022-08-25T10:23:52.733Z,27.53
2022-08-25T10:27:03.958Z,27.56
2022-08-25T10:30:03.126Z,27.62
2022-08-25T10:33:21.233Z,27.71
2022-08-25T10:36:30.063Z,27.81
2022-08-25T10:39:02.797Z,27.93
2022-08-25T10:42:13.182Z,28.03
2022-08-25T10:45:24.964Z,28.18
2022-08-25T10:48:03.286Z,28.29
2022-08-25T10:50:45.526Z,28.32
2022-08-25T10:54:15.989Z,28.32
2022-08-25T10:57:19.321Z,28.50
2022-08-25T11:00:01.688Z,28.52
2022-08-25T11:02:49.840Z,28.48
2022-08-25T11:05:40.988Z,28.29
2022-08-25T11:08:23.063Z,28.13
2022-08-25T11:11:02.331Z,28.13
2022-08-25T11:13:41.767Z,28.12
2022-08-25T11:16:25.489Z,28.07
2022-08-25T11:19:33.703Z,28.15
2022-08-25T11:22:24.757Z,28.16
2022-08-25T11:25:35.011Z,28.15
2022-08-25T11:28:51.256Z,28.04
2022-08-25T11:31:22.980Z,27.98
2022-08-25T11:33:52.306Z,27.92
2022-08-25T11:36:55.246Z,27.73
2022-08-25T11:40:10.246Z,28.04
2022-08-25T11:43:08.205Z,28.09
2022-08-25T11:46:27.853Z,28.06
2022-08-25T11:49:16.371Z,28.02
2022-08-25T11:51:47.740Z,27.91
2022-08-25T11:54:43.855Z,27.88
2022-08-25T11:57:26.057Z,27.84
2022-08-25T11:59:54.881Z,27.77
2022-08-25T12:02:39.173Z,27.70
2022-08-25T12:05:22.112Z,27.67
2022-08-25T12:08:18.306Z,27.70
2022-08-25T12:11:10.658Z,27.73
2022-08-25T12:13:50.953Z,27.75
2022-08-25T12:16:56.470Z,27.93
2022-08-25T12:19:28.595Z,28.04
2022-08-25T12:22:19.169Z,28.08
2022-08-25T12:24:56.957Z,28.10
2022-08-25T12:28:00.179Z,28.20
2022-08-25T12:30:57.004Z,28.22
2022-08-25T12:34:05.206Z,28.33
2022-08-25T12:36:35.157Z,28.41
2022-08-25T12:39:24.253Z,28.41
2022-08-25T12:44:49.516Z,28.33
2022-08-25T12:47:33.970Z,28.37
2022-08-25T12:50:40.723Z,28.33
2022-08-25T12:53:41.064Z,28.28
2022-08-25T12:56:39.099Z,28.25
2022-08-25T12:59:21.804Z,28.21
2022-08-25T13:02:39.824Z,28.17
2022-08-25T13:05:25.615Z,28.11
2022-08-25T13:08:23.012Z,28.11
2022-08-25T13:11:13.473Z,28.01
2022-08-25T13:14:01.434Z,27.98
2022-08-25T13:16:30.337Z,28.01
2022-08-25T13:19:03.917Z,28.06
2022-08-25T13:21:42.770Z,28.07
2022-08-25T13:24:26.434Z,28.08
2022-08-25T13:27:05.438Z,28.12
2022-08-25T13:29:49.419Z,28.24
2022-08-25T13:32:35.340Z,28.33
2022-08-25T13:35:19.736Z,28.41
2022-08-25T13:37:47.798Z,28.51
2022-08-25T13:40:29.466Z,28.57
2022-08-25T13:43:05.787Z,28.56
2022-08-25T13:45:41.271Z,28.44
2022-08-25T13:48:22.440Z,28.44
2022-08-25T13:50:54.114Z,28.33
2022-08-25T13:53:30.519Z,28.35
2022-08-25T13:56:03.855Z,28.33
2022-08-25T13:58:45.296Z,28.24
2022-08-25T14:01:49.294Z,28.25
2022-08-25T14:04:50.636Z,28.18
2022-08-25T14:07:22.371Z,28.16
2022-08-25T14:09:56.362Z,28.18
2022-08-25T14:12:48.213Z,28.22
2022-08-25T14:15:16.751Z,28.27
2022-08-25T14:18:27.073Z,28.30
2022-08-25T14:20:57.459Z,28.34
2022-08-25T14:23:30.691Z,28.46
2022-08-25T14:25:58.694Z,28.49
2022-08-25T14:28:29.350Z,28.55
2022-08-25T14:31:09.834Z,28.51
2022-08-25T14:33:43.629Z,28.57
2022-08-25T14:36:18.639Z,28.57
2022-08-25T14:38:54.935Z,28.56
2022-08-25T14:41:24.164Z,28.56
2022-08-25T14:43:51.672Z,28.46
2022-08-25T14:46:24.841Z,28.45
2022-08-25T14:48:57.909Z,28.38
2022-08-25T14:51:27.817Z,28.32
2022-08-25T14:54:04.128Z,28.25
2022-08-25T14:56:33.559Z,28.21
2022-08-25T14:59:01.361Z,28.12
2022-08-25T15:01:30.025Z,27.95
2022-08-25T15:04:02.867Z,27.93
2022-08-25T15:06:30.261Z,27.78
2022-08-25T15:09:12.775Z,27.79
2022-08-25T15:11:47.145Z,27.75
2022-08-25T15:14:29.082Z,27.70
2022-08-25T15:17:02.341Z,27.62
2022-08-25T15:19:29.935Z,27.51
2022-08-25T15:21:58.264Z,27.49
2022-08-25T15:24:28.716Z,27.47
2022-08-25T15:27:04.350Z,27.49
2022-08-25T15:29:34.927Z,27.43
2022-08-25T15:32:07.050Z,27.37
2022-08-25T15:34:35.820Z,27.36
2022-08-25T15:37:13.367Z,27.29
2022-08-25T15:39:44.530Z,27.07
2022-08-25T15:42:12.280Z,27.16
2022-08-25T15:44:40.019Z,27.08
2022-08-25T15:47:09.105Z,26.97
2022-08-25T15:49:40.305Z,27.35
2022-08-25T15:52:07.392Z,27.18
2022-08-25T15:54:35.202Z,27.16
2022-08-25T15:57:04.264Z,27.25
2022-08-25T15:59:40.278Z,26.98
2022-08-25T16:02:15.090Z,27.33
2022-08-25T16:04:43.780Z,27.07
2022-08-25T16:07:13.365Z,27.15
2022-08-25T16:09:44.655Z,27.15
2022-08-25T16:12:11.736Z,27.19
2022-08-25T16:14:40.461Z,27.17
2022-08-25T16:17:07.739Z,27.13
2022-08-25T16:19:38.197Z,27.12
2022-08-25T16:22:08.725Z,27.01
2022-08-25T16:24:40.028Z,27.09
2022-08-25T16:27:11.528Z,27.04
2022-08-25T16:29:42.858Z,27.06
2022-08-25T16:32:13.411Z,27.02
2022-08-25T16:34:43.097Z,26.83
2022-08-25T16:37:11.726Z,27.04
2022-08-25T16:39:43.977Z,26.75
2022-08-25T16:42:11.434Z,26.95
2022-08-25T16:44:39.910Z,26.80
2022-08-25T16:47:08.808Z,26.94
2022-08-25T16:49:36.469Z,26.89
2022-08-25T16:52:25.272Z,26.86
2022-08-25T16:55:16.041Z,26.75
2022-08-25T16:57:48.546Z,26.79
2022-08-25T17:00:28.531Z,26.66
2022-08-25T17:03:01.653Z,26.67
2022-08-25T17:05:29.880Z,26.67
2022-08-25T17:08:20.028Z,26.61
2022-08-25T17:10:47.513Z,26.55
2022-08-25T17:13:14.837Z,26.45
2022-08-25T17:15:45.286Z,26.34
2022-08-25T17:18:13.733Z,26.17
2022-08-25T17:20:44.660Z,26.23
2022-08-25T17:23:13.039Z,26.22
2022-08-25T17:25:43.160Z,26.21
2022-08-25T17:28:11.993Z,26.16
2022-08-25T17:30:46.592Z,26.09
2022-08-25T17:33:14.445Z,26.08
2022-08-25T17:35:46.950Z,26.05
2022-08-25T17:38:15.554Z,26.01
2022-08-25T17:40:43.426Z,25.97
2022-08-25T17:43:15.177Z,25.89
2022-08-25T17:45:42.955Z,25.82
2022-08-25T17:48:13.201Z,25.80
2022-08-25T17:50:41.663Z,25.76
2022-08-25T17:53:10.498Z,25.72
2022-08-25T17:55:42.344Z,25.64
2022-08-25T17:58:13.922Z,25.64
2022-08-25T18:00:43.794Z,25.55
2022-08-25T18:03:11.730Z,25.56
2022-08-25T18:05:39.598Z,25.48
2022-08-25T18:08:10.289Z,25.47
2022-08-25T18:10:38.912Z,25.42
2022-08-25T18:13:06.344Z,25.31
2022-08-25T18:15:33.969Z,25.24
2022-08-25T18:18:04.513Z,25.22
2022-08-25T18:20:32.468Z,25.18
2022-08-25T18:22:59.698Z,25.18
2022-08-25T18:25:28.686Z,25.15
2022-08-25T18:27:59.288Z,25.12
2022-08-25T18:30:28.081Z,25.01
2022-08-25T18:32:59.543Z,24.95
2022-08-25T18:35:27.259Z,24.98
2022-08-25T18:38:12.613Z,24.91
2022-08-25T18:40:40.486Z,24.92
2022-08-25T18:43:14.608Z,24.89
2022-08-25T18:45:51.022Z,24.83
2022-08-25T18:48:23.788Z,24.83
2022-08-25T18:50:54.679Z,24.80
2022-08-25T18:53:30.630Z,24.78
2022-08-25T18:56:06.006Z,24.75
2022-08-25T18:58:33.789Z,24.64
2022-08-25T19:01:04.009Z,24.67
2022-08-25T19:03:31.951Z,24.50
2022-08-25T19:06:00.095Z,24.58
2022-08-25T19:08:29.090Z,24.53
2022-08-25T19:10:56.297Z,24.57
2022-08-25T19:13:23.828Z,24.55
2022-08-25T19:15:52.507Z,24.49
2022-08-25T19:18:26.232Z,24.54
2022-08-25T19:20:58.088Z,24.49
2022-08-25T19:23:26.677Z,24.51
2022-08-25T19:25:54.856Z,24.49
2022-08-25T19:28:23.279Z,24.32
2022-08-25T19:30:51.029Z,24.42
2022-08-25T19:33:42.674Z,24.38
2022-08-25T19:36:08.916Z,24.37
2022-08-25T19:38:37.722Z,24.34
2022-08-25T19:41:13.842Z,24.33
2022-08-25T19:43:56.675Z,24.30
2022-08-25T19:46:36.227Z,24.20
2022-08-25T19:49:22.414Z,24.21
2022-08-25T19:51:54.018Z,24.19
2022-08-25T19:54:38.234Z,24.18
2022-08-25T19:57:14.097Z,24.17
2022-08-25T19:59:55.533Z,24.16
2022-08-25T20:02:29.830Z,24.15
2022-08-25T20:05:01.701Z,24.07
2022-08-25T20:07:31.499Z,24.09
2022-08-25T20:10:00.349Z,24.03
2022-08-25T20:12:28.335Z,24.07
2022-08-25T20:14:56.160Z,24.11
2022-08-25T20:17:28.189Z,24.09
2022-08-25T20:19:59.513Z,24.09
2022-08-25T20:22:30.245Z,24.08
2022-08-25T20:25:07.346Z,24.08
2022-08-25T20:27:51.698Z,24.04
2022-08-25T20:30:26.992Z,24.05
2022-08-25T20:32:57.014Z,23.93
2022-08-25T20:35:27.257Z,24.03
2022-08-25T20:37:56.609Z,23.89
2022-08-25T20:40:26.571Z,23.98
2022-08-25T20:42:55.764Z,23.97
2022-08-25T20:45:23.502Z,23.95
2022-08-25T20:47:51.133Z,23.94
2022-08-25T20:50:18.826Z,23.88
2022-08-25T20:52:46.120Z,23.92
2022-08-25T20:55:18.844Z,23.88
2022-08-25T20:57:46.703Z,23.79
2022-08-25T21:00:15.808Z,23.89
2022-08-25T21:02:46.208Z,23.88
2022-08-25T21:05:13.923Z,23.81
2022-08-25T21:07:42.037Z,23.86
2022-08-25T21:10:14.097Z,23.77
2022-08-25T21:12:43.154Z,23.81
2022-08-25T21:15:12.823Z,23.78
2022-08-25T21:17:39.939Z,23.70
2022-08-25T21:20:08.805Z,23.66
2022-08-25T21:22:37.731Z,23.77
2022-08-25T21:25:06.074Z,23.75
2022-08-25T21:27:34.017Z,23.69
2022-08-25T21:30:01.084Z,23.71
2022-08-25T21:32:28.163Z,23.66
2022-08-25T21:34:56.348Z,23.66
2022-08-25T21:37:25.096Z,23.70
2022-08-25T21:39:53.039Z,23.67
2022-08-25T21:42:22.546Z,23.66
2022-08-25T21:44:50.822Z,23.64
2022-08-25T21:47:20.987Z,23.53
2022-08-25T21:49:49.805Z,23.63
2022-08-25T21:52:18.295Z,23.62
2022-08-25T21:54:45.819Z,23.55
2022-08-25T21:57:12.866Z,23.53
2022-08-25T21:59:41.238Z,23.56
2022-08-25T22:02:13.709Z,23.55
2022-08-25T22:04:42.052Z,23.53
2022-08-25T22:07:11.133Z,23.51
2022-08-25T22:09:39.986Z,23.55
2022-08-25T22:12:08.380Z,23.55
2022-08-25T22:14:36.592Z,23.55
2022-08-25T22:17:05.885Z,23.50
2022-08-25T22:19:36.239Z,23.48
2022-08-25T22:22:03.623Z,23.38
2022-08-25T22:24:30.760Z,23.46
2022-08-25T22:26:58.449Z,23.47
2022-08-25T22:29:26.119Z,23.44
2022-08-25T22:31:57.720Z,23.57
2022-08-25T22:34:34.504Z,23.58
2022-08-25T22:37:05.424Z,23.55
2022-08-25T22:39:34.158Z,23.53
2022-08-25T22:42:03.298Z,23.54
2022-08-25T22:44:31.048Z,23.54
2022-08-25T22:46:58.217Z,23.54
2022-08-25T22:49:29.107Z,23.56
2022-08-25T22:51:56.232Z,23.55
2022-08-25T22:54:23.928Z,23.57
2022-08-25T22:56:53.607Z,23.51
2022-08-25T22:59:22.600Z,23.52
2022-08-25T23:01:52.620Z,23.52
2022-08-25T23:04:22.269Z,23.52
2022-08-25T23:06:50.124Z,23.59
2022-08-25T23:09:17.512Z,23.60
2022-08-25T23:11:44.722Z,23.62
2022-08-25T23:14:12.762Z,23.54
2022-08-25T23:16:42.266Z,23.62
2022-08-25T23:19:13.572Z,23.60
2022-08-25T23:22:01.667Z,23.61
2022-08-25T23:24:31.040Z,23.54
2022-08-25T23:27:04.084Z,23.55
2022-08-25T23:29:38.233Z,23.43
2022-08-25T23:32:07.761Z,23.52
2022-08-25T23:34:39.430Z,23.50
2022-08-25T23:37:07.983Z,23.49
2022-08-25T23:39:35.536Z,23.43
2022-08-25T23:42:08.384Z,23.52
2022-08-25T23:44:36.733Z,23.51
2022-08-25T23:47:06.716Z,23.45
2022-08-25T23:49:34.089Z,23.48
2022-08-25T23:52:01.825Z,23.46
2022-08-25T23:54:30.964Z,23.52
2022-08-25T23:56:59.365Z,23.52
2022-08-25T23:59:26.423Z,23.48
